createdAt,value
2023-02-17T00:00:13.192Z,45.30
2023-02-17T00:02:15.871Z,39.28
2023-02-17T00:04:18.318Z,44.50
2023-02-17T00:06:24.975Z,41.00
2023-02-17T00:08:27.371Z,42.63
2023-02-17T00:10:29.752Z,39.17
2023-02-17T00:12:32.316Z,39.50
2023-02-17T00:14:34.773Z,37.20
2023-02-17T00:16:40.028Z,32.63
2023-02-17T00:18:42.620Z,43.42
2023-02-17T00:20:45.154Z,39.42
2023-02-17T00:22:47.541Z,45.97
2023-02-17T00:24:49.947Z,56.90
2023-02-17T00:26:52.383Z,38.65
2023-02-17T00:28:55.462Z,43.83
2023-02-17T00:30:57.910Z,45.65
2023-02-17T00:33:00.487Z,39.53
2023-02-17T00:35:02.950Z,40.97
2023-02-17T00:37:05.757Z,42.78
2023-02-17T00:39:08.284Z,42.25
2023-02-17T00:41:10.759Z,40.42
2023-02-17T00:43:14.459Z,34.33
2023-02-17T00:45:17.296Z,38.90
2023-02-17T00:47:19.785Z,37.42
2023-02-17T00:49:25.106Z,33.58
2023-02-17T00:51:27.599Z,39.70
2023-02-17T00:53:30.372Z,40.30
2023-02-17T00:55:32.762Z,37.77
2023-02-17T00:57:35.265Z,41.50
2023-02-17T00:59:37.754Z,45.80
2023-02-17T01:01:40.286Z,44.20
2023-02-17T01:03:42.780Z,42.33
2023-02-17T01:05:47.291Z,45.73
2023-02-17T01:07:49.687Z,46.67
2023-02-17T01:09:52.138Z,46.95
2023-02-17T01:11:54.535Z,47.13
2023-02-17T01:13:57.668Z,52.10
2023-02-17T01:16:00.210Z,45.77
2023-02-17T01:18:02.754Z,41.50
2023-02-17T01:20:06.023Z,45.75
2023-02-17T01:22:08.562Z,43.47
2023-02-17T01:24:13.057Z,36.25
2023-02-17T01:26:19.004Z,35.87
2023-02-17T01:28:22.360Z,39.38
2023-02-17T01:30:24.767Z,41.08
2023-02-17T01:32:27.239Z,41.78
2023-02-17T01:34:29.682Z,38.10
2023-02-17T01:36:32.467Z,40.33
2023-02-17T01:38:35.957Z,40.08
2023-02-17T01:40:38.330Z,39.33
2023-02-17T01:42:40.755Z,37.28
2023-02-17T01:45:20.278Z,36.67
2023-02-17T01:47:22.765Z,39.13
2023-02-17T01:49:34.329Z,37.40
2023-02-17T01:51:39.289Z,40.90
2023-02-17T01:54:18.050Z,41.42
2023-02-17T01:56:21.376Z,43.35
2023-02-17T01:58:24.600Z,37.97
2023-02-17T02:00:29.764Z,45.45
2023-02-17T02:02:32.436Z,43.13
2023-02-17T02:04:38.290Z,43.40
2023-02-17T02:06:41.573Z,44.35
2023-02-17T02:08:53.570Z,32.40
2023-02-17T02:10:55.961Z,34.88
2023-02-17T02:12:58.358Z,40.75
2023-02-17T02:15:13.291Z,38.63
2023-02-17T02:17:25.126Z,37.33
2023-02-17T02:19:42.418Z,41.33
2023-02-17T02:22:12.122Z,33.55
2023-02-17T02:24:44.888Z,34.25
2023-02-17T02:27:19.407Z,39.38
2023-02-17T02:29:28.569Z,40.05
2023-02-17T02:31:51.262Z,59.27
2023-02-17T02:33:54.478Z,52.22
2023-02-17T02:36:26.324Z,52.97
2023-02-17T02:38:35.153Z,54.20
2023-02-17T02:40:40.538Z,55.17
2023-02-17T02:42:43.548Z,58.03
2023-02-17T02:44:45.950Z,54.13
2023-02-17T02:47:02.639Z,54.33
2023-02-17T02:49:05.858Z,46.65
2023-02-17T02:51:30.632Z,46.42
2023-02-17T02:53:48.369Z,40.83
2023-02-17T02:55:52.933Z,44.97
2023-02-17T02:58:01.230Z,41.92
2023-02-17T03:00:33.804Z,49.95
2023-02-17T03:02:38.942Z,55.22
2023-02-17T03:04:51.767Z,65.00
2023-02-17T03:07:02.226Z,95.55
2023-02-17T03:09:13.459Z,80.15
2023-02-17T03:11:32.356Z,68.65
2023-02-17T03:13:39.503Z,82.93
2023-02-17T03:15:42.003Z,77.23
2023-02-17T03:17:44.475Z,62.78
2023-02-17T03:19:47.810Z,53.80
2023-02-17T03:21:50.229Z,47.45
2023-02-17T03:23:52.755Z,49.75
2023-02-17T03:25:55.232Z,43.60
2023-02-17T03:27:57.803Z,41.22
2023-02-17T03:30:00.288Z,40.05
2023-02-17T03:32:03.242Z,42.13
2023-02-17T03:34:05.644Z,45.92
2023-02-17T03:36:08.486Z,49.50
2023-02-17T03:38:10.930Z,38.80
2023-02-17T03:40:13.344Z,42.80
2023-02-17T03:42:15.922Z,46.85
2023-02-17T03:44:19.515Z,44.45
2023-02-17T03:46:21.968Z,47.20
2023-02-17T03:48:24.345Z,46.67
2023-02-17T03:50:26.738Z,45.75
2023-02-17T03:52:29.137Z,42.70
2023-02-17T03:54:31.580Z,54.85
2023-02-17T03:56:34.026Z,46.57
2023-02-17T03:58:36.517Z,46.70
2023-02-17T04:00:39.080Z,50.40
2023-02-17T04:02:43.981Z,55.40
2023-02-17T04:04:46.660Z,56.90
2023-02-17T04:06:49.201Z,56.50
2023-02-17T04:08:51.571Z,58.55
2023-02-17T04:10:56.032Z,56.65
2023-02-17T04:12:58.367Z,51.28
2023-02-17T04:15:00.780Z,48.13
2023-02-17T04:17:03.178Z,53.33
2023-02-17T04:19:07.009Z,50.80
2023-02-17T04:21:09.843Z,55.15
2023-02-17T04:23:14.567Z,46.00
2023-02-17T04:25:17.070Z,71.60
2023-02-17T04:27:19.514Z,78.97
2023-02-17T04:29:21.927Z,67.05
2023-02-17T04:31:26.042Z,75.10
2023-02-17T04:33:28.772Z,74.25
2023-02-17T04:35:31.227Z,64.75
2023-02-17T04:37:33.688Z,76.40
2023-02-17T04:39:36.074Z,44.47
2023-02-17T04:41:38.463Z,50.35
2023-02-17T04:43:40.847Z,45.22
2023-02-17T04:45:43.476Z,44.38
2023-02-17T04:47:45.917Z,43.33
2023-02-17T04:49:48.953Z,52.40
2023-02-17T04:51:51.413Z,50.88
2023-02-17T04:53:53.858Z,48.85
2023-02-17T04:55:56.247Z,40.42
2023-02-17T04:57:58.764Z,37.10
2023-02-17T05:00:01.240Z,35.17
2023-02-17T05:02:03.695Z,31.40
2023-02-17T05:04:06.369Z,31.17
2023-02-17T05:06:08.813Z,35.70
2023-02-17T05:08:11.263Z,32.13
2023-02-17T05:10:15.139Z,35.70
2023-02-17T05:12:17.545Z,32.13
2023-02-17T05:14:19.975Z,38.38
2023-02-17T05:16:22.469Z,36.50
2023-02-17T05:18:24.894Z,50.57
2023-02-17T05:20:27.377Z,49.70
2023-02-17T05:22:29.891Z,40.70
2023-02-17T05:24:32.464Z,36.35
2023-02-17T05:26:34.839Z,41.58
2023-02-17T05:28:37.998Z,44.37
2023-02-17T05:30:40.478Z,44.90
2023-02-17T05:32:42.842Z,42.13
2023-02-17T05:34:45.574Z,51.78
2023-02-17T05:36:48.148Z,46.83
2023-02-17T05:38:51.685Z,38.63
2023-02-17T05:40:54.080Z,49.85
2023-02-17T05:42:56.515Z,48.63
2023-02-17T05:44:58.928Z,43.70
2023-02-17T05:47:01.401Z,44.45
2023-02-17T05:49:03.853Z,48.93
2023-02-17T05:51:06.509Z,52.58
2023-02-17T05:53:09.076Z,47.05
2023-02-17T05:55:11.429Z,42.00
2023-02-17T05:57:13.923Z,44.42
2023-02-17T05:59:19.443Z,67.10
2023-02-17T06:01:21.917Z,55.13
2023-02-17T06:03:24.403Z,74.13
2023-02-17T06:05:26.943Z,61.28
2023-02-17T06:07:29.414Z,74.65
2023-02-17T06:09:32.124Z,73.13
2023-02-17T06:11:34.753Z,88.80
2023-02-17T06:13:37.243Z,93.20
2023-02-17T06:15:39.748Z,112.82
2023-02-17T06:17:42.227Z,73.47
2023-02-17T06:19:44.624Z,73.47
2023-02-17T06:21:47.155Z,62.72
2023-02-17T06:23:49.636Z,64.55
2023-02-17T06:25:52.284Z,60.40
2023-02-17T06:27:54.868Z,84.07
2023-02-17T06:29:57.365Z,110.73
2023-02-17T06:31:59.788Z,67.10
2023-02-17T06:34:02.529Z,62.85
2023-02-17T06:36:06.868Z,51.13
2023-02-17T06:38:09.397Z,80.80
2023-02-17T06:40:12.623Z,84.57
2023-02-17T06:42:15.095Z,121.47
2023-02-17T06:44:17.520Z,109.45
2023-02-17T06:46:19.886Z,81.53
2023-02-17T06:48:22.338Z,77.85
2023-02-17T06:50:24.814Z,211.10
2023-02-17T06:52:27.615Z,113.55
2023-02-17T06:54:30.300Z,118.72
2023-02-17T06:56:32.897Z,146.30
2023-02-17T06:58:36.761Z,136.50
2023-02-17T07:00:39.323Z,108.57
2023-02-17T07:02:41.790Z,101.90
2023-02-17T07:04:44.318Z,139.10
2023-02-17T07:06:46.762Z,116.82
2023-02-17T07:08:49.348Z,113.90
2023-02-17T07:10:51.809Z,90.50
2023-02-17T07:12:54.347Z,85.28
2023-02-17T07:14:56.879Z,75.53
2023-02-17T07:16:59.597Z,75.20
2023-02-17T07:19:02.039Z,66.10
2023-02-17T07:21:06.072Z,59.03
2023-02-17T07:23:08.478Z,61.95
2023-02-17T07:25:11.088Z,56.33
2023-02-17T07:27:13.503Z,65.93
2023-02-17T07:29:15.908Z,63.53
2023-02-17T07:31:18.787Z,64.77
2023-02-17T07:33:21.279Z,70.43
2023-02-17T07:35:23.930Z,71.43
2023-02-17T07:37:26.361Z,77.22
2023-02-17T07:39:28.742Z,70.07
2023-02-17T07:41:32.921Z,66.47
2023-02-17T07:43:35.873Z,71.18
2023-02-17T07:45:38.368Z,66.25
2023-02-17T07:47:40.856Z,57.78
2023-02-17T07:49:43.382Z,58.28
2023-02-17T07:51:45.914Z,59.77
2023-02-17T07:53:49.181Z,62.08
2023-02-17T07:55:51.596Z,59.72
2023-02-17T07:57:53.993Z,63.38
2023-02-17T07:59:56.421Z,65.63
2023-02-17T08:01:58.986Z,68.83
2023-02-17T08:04:01.443Z,60.65
2023-02-17T08:06:04.462Z,68.60
2023-02-17T08:08:26.226Z,65.97
2023-02-17T08:10:47.095Z,67.57
2023-02-17T08:13:08.322Z,63.83
2023-02-17T08:15:11.804Z,61.97
2023-02-17T08:17:14.247Z,63.42
2023-02-17T08:19:17.018Z,61.40
2023-02-17T08:21:19.508Z,65.63
2023-02-17T08:23:22.708Z,53.77
2023-02-17T08:25:25.091Z,55.20
2023-02-17T08:27:27.541Z,58.00
2023-02-17T08:29:30.144Z,47.97
2023-02-17T08:31:34.933Z,55.05
2023-02-17T08:33:37.381Z,50.37
2023-02-17T08:35:39.803Z,51.97
2023-02-17T08:37:42.331Z,50.53
2023-02-17T08:39:44.769Z,54.42
2023-02-17T08:41:47.293Z,59.20
2023-02-17T08:43:50.580Z,60.13
2023-02-17T08:45:53.091Z,62.90
2023-02-17T08:47:55.512Z,55.35
2023-02-17T08:49:57.994Z,55.15
2023-02-17T08:52:01.173Z,55.33
2023-02-17T08:54:05.435Z,55.17
2023-02-17T08:56:08.505Z,52.40
2023-02-17T08:58:11.064Z,50.10
2023-02-17T09:00:14.115Z,46.63
2023-02-17T09:02:17.371Z,45.97
2023-02-17T09:04:20.009Z,47.50
2023-02-17T09:06:23.051Z,58.33
2023-02-17T09:08:25.899Z,51.22
2023-02-17T09:10:28.705Z,45.33
2023-02-17T09:12:31.159Z,48.35
2023-02-17T09:14:33.695Z,51.67
2023-02-17T09:16:36.703Z,47.42
2023-02-17T09:18:39.111Z,52.22
2023-02-17T09:20:41.642Z,49.15
2023-02-17T09:22:44.158Z,55.58
2023-02-17T09:24:46.855Z,56.90
2023-02-17T09:26:49.358Z,51.90
2023-02-17T09:28:51.947Z,50.70
2023-02-17T09:30:54.487Z,56.60
2023-02-17T09:32:57.197Z,49.53
2023-02-17T09:35:01.592Z,45.80
2023-02-17T09:37:04.818Z,49.10
2023-02-17T09:39:07.759Z,56.05
2023-02-17T09:41:22.159Z,49.90
2023-02-17T09:43:28.782Z,50.58
2023-02-17T09:45:36.319Z,53.93
2023-02-17T09:47:47.087Z,48.63
2023-02-17T09:49:57.127Z,54.60
2023-02-17T09:52:05.582Z,52.25
2023-02-17T09:54:12.272Z,52.38
2023-02-17T09:56:20.380Z,39.53
2023-02-17T09:58:34.831Z,34.63
2023-02-17T10:00:59.130Z,39.33
2023-02-17T10:03:27.620Z,37.38
2023-02-17T10:05:36.673Z,37.35
2023-02-17T10:07:49.190Z,40.50
2023-02-17T10:09:59.352Z,39.20
2023-02-17T10:12:05.125Z,36.97
2023-02-17T10:14:20.010Z,34.88
2023-02-17T10:16:31.121Z,36.35
2023-02-17T10:18:38.016Z,39.93
2023-02-17T10:20:52.955Z,38.38
2023-02-17T10:23:16.304Z,39.08
2023-02-17T10:25:38.709Z,34.03
2023-02-17T10:28:00.226Z,33.85
2023-02-17T10:30:09.994Z,32.87
2023-02-17T10:32:12.644Z,28.05
2023-02-17T10:34:21.396Z,34.20
2023-02-17T10:36:44.322Z,32.15
2023-02-17T10:39:16.697Z,39.72
2023-02-17T10:41:27.317Z,35.90
2023-02-17T10:43:33.141Z,34.17
2023-02-17T10:45:36.317Z,38.97
2023-02-17T10:47:40.078Z,35.40
2023-02-17T10:49:46.207Z,45.78
2023-02-17T10:51:48.569Z,38.03
2023-02-17T10:54:04.739Z,45.13
2023-02-17T10:56:14.634Z,39.85
2023-02-17T10:58:30.129Z,36.97
2023-02-17T11:00:33.060Z,34.30
2023-02-17T11:02:50.456Z,39.73
2023-02-17T11:04:56.713Z,38.05
2023-02-17T11:07:00.936Z,40.40
2023-02-17T11:09:16.184Z,38.88
2023-02-17T11:11:22.179Z,42.90
2023-02-17T11:13:35.781Z,37.47
2023-02-17T11:15:45.617Z,34.95
2023-02-17T11:17:48.337Z,41.47
2023-02-17T11:20:05.105Z,38.60
2023-02-17T11:22:31.876Z,35.97
2023-02-17T11:24:35.796Z,39.33
2023-02-17T11:26:38.348Z,39.67
2023-02-17T11:28:40.760Z,39.97
2023-02-17T11:30:51.821Z,34.47
2023-02-17T11:32:57.450Z,31.90
2023-02-17T11:35:06.311Z,33.33
2023-02-17T11:37:14.771Z,48.97
2023-02-17T11:39:23.327Z,32.67
2023-02-17T11:41:25.775Z,31.23
2023-02-17T11:43:29.238Z,35.88
2023-02-17T11:46:13.340Z,58.50
2023-02-17T11:48:30.172Z,35.13
2023-02-17T11:51:03.541Z,33.10
2023-02-17T11:53:05.925Z,30.95
2023-02-17T11:55:32.584Z,30.80
2023-02-17T11:57:37.921Z,26.90
2023-02-17T11:59:56.574Z,30.25
2023-02-17T12:02:26.673Z,43.80
2023-02-17T12:04:31.846Z,39.35
2023-02-17T12:06:44.781Z,35.20
2023-02-17T12:09:12.046Z,43.60
2023-02-17T12:11:40.796Z,37.03
2023-02-17T12:13:58.405Z,32.28
2023-02-17T12:16:03.882Z,42.58
2023-02-17T12:18:30.088Z,45.95
2023-02-17T12:20:52.224Z,30.80
2023-02-17T12:23:18.873Z,27.33
2023-02-17T12:25:31.774Z,30.00
2023-02-17T12:27:58.950Z,28.60
2023-02-17T12:30:28.048Z,31.83
2023-02-17T12:32:49.214Z,21.83
2023-02-17T12:35:00.512Z,20.60
2023-02-17T12:37:03.184Z,25.38
2023-02-17T12:39:18.916Z,26.42
2023-02-17T12:41:39.178Z,22.33
2023-02-17T12:43:54.196Z,24.03
2023-02-17T12:45:59.620Z,21.30
2023-02-17T12:48:23.000Z,23.98
2023-02-17T12:50:36.324Z,22.58
2023-02-17T12:52:40.874Z,21.77
2023-02-17T12:54:49.011Z,24.97
2023-02-17T12:57:00.288Z,22.00
2023-02-17T12:59:14.332Z,24.05
2023-02-17T13:01:19.859Z,21.88
2023-02-17T13:03:22.540Z,20.42
2023-02-17T13:05:30.681Z,22.13
2023-02-17T13:07:46.994Z,21.65
2023-02-17T13:09:50.715Z,21.35
2023-02-17T13:11:53.184Z,17.25
2023-02-17T13:13:55.686Z,24.77
2023-02-17T13:16:09.305Z,22.00
2023-02-17T13:18:25.727Z,28.17
2023-02-17T13:20:52.352Z,23.83
2023-02-17T13:23:11.437Z,24.38
2023-02-17T13:25:29.378Z,25.20
2023-02-17T13:27:36.609Z,22.60
2023-02-17T13:29:39.440Z,22.30
2023-02-17T13:31:57.227Z,23.77
2023-02-17T13:34:00.301Z,20.45
2023-02-17T13:36:13.847Z,19.35
2023-02-17T13:38:30.410Z,20.47
2023-02-17T13:40:41.205Z,19.73
2023-02-17T13:42:48.560Z,19.50
2023-02-17T13:44:51.905Z,24.20
2023-02-17T13:47:00.481Z,20.27
2023-02-17T13:49:06.802Z,20.73
2023-02-17T13:51:21.963Z,23.35
2023-02-17T13:53:38.950Z,23.23
2023-02-17T13:55:41.925Z,24.98
2023-02-17T13:57:44.769Z,23.08
2023-02-17T13:59:47.156Z,24.07
2023-02-17T14:01:49.862Z,21.80
2023-02-17T14:03:55.324Z,20.05
2023-02-17T14:05:59.445Z,24.48
2023-02-17T14:08:07.917Z,21.85
2023-02-17T14:10:19.079Z,19.97
2023-02-17T14:12:24.892Z,21.17
2023-02-17T14:14:34.850Z,23.50
2023-02-17T14:16:39.594Z,23.38
2023-02-17T14:18:42.990Z,25.77
2023-02-17T14:20:45.675Z,20.30
2023-02-17T14:22:59.202Z,22.02
2023-02-17T14:25:13.128Z,26.63
2023-02-17T14:27:15.609Z,22.38
2023-02-17T14:29:18.058Z,22.55
2023-02-17T14:31:21.744Z,28.60
2023-02-17T14:33:25.685Z,27.17
2023-02-17T14:35:28.176Z,23.85
2023-02-17T14:37:32.109Z,20.23
2023-02-17T14:39:34.666Z,22.52
2023-02-17T14:41:37.107Z,21.47
2023-02-17T14:43:39.576Z,24.92
2023-02-17T14:45:42.133Z,26.75
2023-02-17T14:47:45.176Z,23.75
2023-02-17T14:49:47.623Z,21.30
2023-02-17T14:51:50.057Z,23.27
2023-02-17T14:53:53.065Z,25.05
2023-02-17T14:56:16.025Z,28.63
2023-02-17T14:58:22.871Z,24.83
2023-02-17T15:00:27.633Z,23.45
2023-02-17T15:02:31.533Z,21.47
2023-02-17T15:04:34.016Z,24.58
2023-02-17T15:06:47.548Z,28.65
2023-02-17T15:08:50.527Z,23.30
2023-02-17T15:10:52.923Z,22.67
2023-02-17T15:12:55.553Z,23.73
2023-02-17T15:14:58.114Z,23.95
2023-02-17T15:17:00.476Z,25.23
2023-02-17T15:19:02.835Z,23.38
2023-02-17T15:21:26.200Z,26.00
2023-02-17T15:23:31.865Z,25.37
2023-02-17T15:25:35.061Z,29.17
2023-02-17T15:27:37.466Z,31.80
2023-02-17T15:29:39.863Z,31.00
2023-02-17T15:31:42.570Z,28.60
2023-02-17T15:33:55.743Z,36.70
2023-02-17T15:35:58.121Z,37.08
2023-02-17T15:38:00.876Z,39.45
2023-02-17T15:40:03.422Z,42.67
2023-02-17T15:42:11.481Z,37.00
2023-02-17T15:44:21.575Z,40.47
2023-02-17T15:46:29.496Z,42.05
2023-02-17T15:48:33.528Z,41.13
2023-02-17T15:50:35.933Z,44.60
2023-02-17T15:52:38.459Z,40.38
2023-02-17T15:54:42.795Z,42.67
2023-02-17T15:56:48.884Z,40.95
2023-02-17T15:58:51.697Z,42.25
2023-02-17T16:00:55.906Z,47.63
2023-02-17T16:02:58.384Z,50.20
2023-02-17T16:05:00.884Z,57.00
2023-02-17T16:07:03.291Z,64.03
2023-02-17T16:09:06.381Z,48.22
2023-02-17T16:11:14.830Z,53.17
2023-02-17T16:13:19.818Z,71.13
2023-02-17T16:15:24.592Z,73.83
2023-02-17T16:17:27.678Z,71.55
2023-02-17T16:19:31.585Z,70.35
2023-02-17T16:21:34.169Z,69.95
2023-02-17T16:23:36.608Z,76.53
2023-02-17T16:25:39.186Z,61.60
2023-02-17T16:27:43.005Z,59.92
2023-02-17T16:29:45.490Z,82.88
2023-02-17T16:31:48.887Z,108.35
2023-02-17T16:33:51.879Z,165.30
2023-02-17T16:35:54.333Z,160.70
2023-02-17T16:38:06.119Z,154.00
2023-02-17T16:40:16.479Z,106.95
2023-02-17T16:42:18.893Z,177.25
2023-02-17T16:44:23.209Z,309.35
2023-02-17T16:46:30.931Z,171.17
2023-02-17T16:48:35.555Z,238.63
2023-02-17T16:50:37.976Z,215.95
2023-02-17T16:52:40.422Z,166.95
2023-02-17T16:54:42.872Z,145.40
2023-02-17T16:56:50.153Z,149.70
2023-02-17T16:58:52.733Z,182.65
2023-02-17T17:00:56.346Z,174.95
2023-02-17T17:02:59.709Z,178.80
2023-02-17T17:05:02.147Z,141.13
2023-02-17T17:07:04.738Z,144.93
2023-02-17T17:09:07.218Z,156.65
2023-02-17T17:11:15.491Z,166.32
2023-02-17T17:13:18.047Z,178.75
2023-02-17T17:15:21.118Z,216.13
2023-02-17T17:17:23.556Z,279.43
2023-02-17T17:19:26.056Z,192.88
2023-02-17T17:21:28.702Z,150.68
2023-02-17T17:23:31.095Z,151.48
2023-02-17T17:25:37.428Z,162.00
2023-02-17T17:27:39.862Z,170.37
2023-02-17T17:29:42.432Z,130.73
2023-02-17T17:31:45.387Z,101.30
2023-02-17T17:33:49.152Z,93.30
2023-02-17T17:35:52.791Z,66.43
2023-02-17T17:37:55.520Z,97.23
2023-02-17T17:39:57.933Z,86.97
2023-02-17T17:42:00.405Z,85.22
2023-02-17T17:44:03.066Z,69.45
2023-02-17T17:46:32.291Z,95.20
2023-02-17T17:48:34.679Z,76.93
2023-02-17T17:50:37.046Z,76.47
2023-02-17T17:52:39.513Z,76.45
2023-02-17T17:54:42.597Z,77.88
2023-02-17T17:56:45.156Z,86.93
2023-02-17T17:58:47.893Z,92.97
2023-02-17T18:00:50.447Z,89.88
2023-02-17T18:02:53.156Z,87.75
2023-02-17T18:04:55.681Z,87.70
2023-02-17T18:06:58.677Z,84.93
2023-02-17T18:09:04.798Z,80.77
2023-02-17T18:11:08.643Z,80.43
2023-02-17T18:13:12.157Z,75.82
2023-02-17T18:15:16.009Z,89.82
2023-02-17T18:17:19.003Z,91.78
2023-02-17T18:19:21.555Z,84.67
2023-02-17T18:21:23.995Z,75.80
2023-02-17T18:23:26.413Z,72.60
2023-02-17T18:25:28.820Z,81.43
2023-02-17T18:27:46.823Z,76.20
2023-02-17T18:29:49.565Z,70.47
2023-02-17T18:31:52.173Z,56.97
2023-02-17T18:33:55.147Z,71.20
2023-02-17T18:35:57.501Z,63.33
2023-02-17T18:37:59.962Z,65.10
2023-02-17T18:40:04.065Z,62.80
2023-02-17T18:42:06.702Z,55.72
2023-02-17T18:44:11.029Z,58.53
2023-02-17T18:46:13.940Z,56.15
2023-02-17T18:48:16.387Z,57.00
2023-02-17T18:50:18.939Z,52.17
2023-02-17T18:52:21.401Z,57.95
2023-02-17T18:54:23.885Z,52.63
2023-02-17T18:56:30.647Z,58.67
2023-02-17T18:58:33.059Z,51.40
2023-02-17T19:00:35.437Z,45.77
2023-02-17T19:02:38.960Z,52.15
2023-02-17T19:04:41.472Z,44.80
2023-02-17T19:06:43.998Z,43.30
2023-02-17T19:08:48.041Z,48.85
2023-02-17T19:10:51.846Z,58.20
2023-02-17T19:12:54.284Z,54.15
2023-02-17T19:14:56.901Z,55.67
2023-02-17T19:16:59.537Z,54.70
2023-02-17T19:19:02.421Z,65.93
2023-02-17T19:21:06.007Z,80.93
2023-02-17T19:23:08.502Z,68.50
2023-02-17T19:25:11.120Z,74.28
2023-02-17T19:27:13.675Z,45.92
2023-02-17T19:29:16.134Z,54.60
2023-02-17T19:31:20.211Z,37.20
2023-02-17T19:33:22.856Z,48.30
2023-02-17T19:35:25.452Z,40.65
2023-02-17T19:37:28.009Z,49.30
2023-02-17T19:39:31.859Z,57.72
2023-02-17T19:41:36.012Z,67.30
2023-02-17T19:43:39.197Z,72.63
2023-02-17T19:45:41.658Z,71.78
2023-02-17T19:47:44.071Z,61.95
2023-02-17T19:49:46.454Z,79.82
2023-02-17T19:51:50.035Z,94.13
2023-02-17T19:53:52.503Z,95.13
2023-02-17T19:55:55.010Z,76.38
2023-02-17T19:57:57.468Z,88.28
2023-02-17T19:59:59.887Z,93.75
2023-02-17T20:02:02.294Z,76.77
2023-02-17T20:04:05.752Z,86.68
2023-02-17T20:06:14.055Z,65.43
2023-02-17T20:08:16.452Z,57.35
2023-02-17T20:10:19.644Z,68.97
2023-02-17T20:12:22.163Z,42.83
2023-02-17T20:14:24.694Z,34.72
2023-02-17T20:16:27.808Z,40.35
2023-02-17T20:18:30.292Z,40.20
2023-02-17T20:20:32.705Z,39.20
2023-02-17T20:22:35.119Z,49.80
2023-02-17T20:24:38.151Z,54.75
2023-02-17T20:26:42.792Z,60.65
2023-02-17T20:28:45.657Z,42.03
2023-02-17T20:30:48.159Z,35.17
2023-02-17T20:32:50.582Z,49.33
2023-02-17T20:34:53.049Z,55.50
2023-02-17T20:36:56.503Z,47.63
2023-02-17T20:38:58.894Z,49.85
2023-02-17T20:41:01.642Z,46.78
2023-02-17T20:43:05.247Z,45.07
2023-02-17T20:45:07.994Z,41.55
2023-02-17T20:47:11.972Z,32.55
2023-02-17T20:49:15.500Z,30.27
2023-02-17T20:51:17.967Z,29.27
2023-02-17T20:53:20.353Z,25.63
2023-02-17T20:55:22.899Z,31.15
2023-02-17T20:57:26.193Z,37.95
2023-02-17T20:59:28.610Z,35.47
2023-02-17T21:01:31.598Z,39.95
2023-02-17T21:03:34.051Z,35.57
2023-02-17T21:05:37.416Z,31.98
2023-02-17T21:07:40.055Z,43.78
2023-02-17T21:09:42.505Z,35.70
2023-02-17T21:11:45.827Z,32.30
2023-02-17T21:13:48.893Z,34.97
2023-02-17T21:15:51.565Z,28.92
2023-02-17T21:17:54.103Z,36.55
2023-02-17T21:19:56.531Z,39.47
2023-02-17T21:21:59.005Z,39.42
2023-02-17T21:24:01.652Z,32.57
2023-02-17T21:26:07.227Z,35.85
2023-02-17T21:28:09.811Z,33.70
2023-02-17T21:30:13.294Z,45.15
2023-02-17T21:32:15.840Z,43.42
2023-02-17T21:34:18.242Z,41.43
2023-02-17T21:36:20.670Z,35.88
2023-02-17T21:38:23.871Z,58.20
2023-02-17T21:40:26.266Z,38.00
2023-02-17T21:42:47.205Z,34.15
2023-02-17T21:44:52.336Z,33.33
2023-02-17T21:46:54.824Z,38.15
2023-02-17T21:48:59.000Z,36.83
2023-02-17T21:51:09.391Z,33.45
2023-02-17T21:53:11.852Z,33.05
2023-02-17T21:55:14.291Z,36.83
2023-02-17T21:57:16.773Z,34.40
2023-02-17T21:59:19.338Z,33.25
2023-02-17T22:01:23.229Z,36.88
2023-02-17T22:03:25.694Z,33.92
2023-02-17T22:05:31.725Z,30.63
2023-02-17T22:07:34.172Z,34.97
2023-02-17T22:09:36.628Z,38.17
2023-02-17T22:11:41.837Z,43.42
2023-02-17T22:13:46.315Z,40.92
2023-02-17T22:15:58.094Z,35.70
2023-02-17T22:18:00.880Z,45.10
2023-02-17T22:20:04.656Z,37.70
2023-02-17T22:22:07.210Z,36.83
2023-02-17T22:24:09.636Z,31.88
2023-02-17T22:26:21.222Z,29.67
2023-02-17T22:28:23.668Z,38.72
2023-02-17T22:30:26.352Z,49.83
2023-02-17T22:32:28.869Z,52.88
2023-02-17T22:34:31.373Z,62.50
2023-02-17T22:36:35.909Z,107.57
2023-02-17T22:38:38.586Z,113.75
2023-02-17T22:40:41.926Z,118.80
2023-02-17T22:42:44.328Z,108.53
2023-02-17T22:44:46.950Z,143.48
2023-02-17T22:46:49.438Z,126.07
2023-02-17T22:48:52.915Z,110.55
2023-02-17T22:50:55.505Z,107.13
2023-02-17T22:52:58.020Z,127.10
2023-02-17T22:55:00.441Z,132.23
2023-02-17T22:57:02.903Z,132.10
2023-02-17T22:59:05.904Z,119.95
2023-02-17T23:01:15.867Z,108.70
2023-02-17T23:03:18.990Z,77.30
2023-02-17T23:05:21.434Z,64.80
2023-02-17T23:07:24.291Z,67.43
2023-02-17T23:09:26.701Z,62.47
2023-02-17T23:11:51.322Z,47.63
2023-02-17T23:13:53.761Z,37.78
2023-02-17T23:15:56.224Z,38.20
2023-02-17T23:17:58.698Z,28.97
2023-02-17T23:20:01.127Z,31.45
2023-02-17T23:22:10.496Z,35.85
2023-02-17T23:24:14.234Z,32.75
2023-02-17T23:26:16.663Z,35.17
2023-02-17T23:28:20.634Z,39.40
2023-02-17T23:30:23.485Z,39.53
2023-02-17T23:32:25.975Z,30.80
2023-02-17T23:34:28.759Z,38.85
2023-02-17T23:36:31.622Z,39.38
2023-02-17T23:38:34.462Z,44.10
2023-02-17T23:40:37.897Z,48.58
2023-02-17T23:42:40.402Z,40.70
2023-02-17T23:44:42.894Z,50.78
2023-02-17T23:46:45.939Z,38.55
2023-02-17T23:48:48.349Z,46.93
2023-02-17T23:51:01.354Z,28.17
2023-02-17T23:53:03.843Z,37.35
2023-02-17T23:55:06.624Z,41.53
2023-02-17T23:57:09.084Z,30.73
2023-02-17T23:59:11.733Z,32.30
